createdAt,value
2018-08-09T05:02:19.083Z,2.97
2018-08-09T05:07:22.418Z,2.60
2018-08-09T05:12:25.751Z,3.07
2018-08-09T05:17:29.087Z,2.80
2018-08-09T05:22:32.417Z,2.40
2018-08-09T05:27:35.748Z,3.27
2018-08-09T05:32:39.079Z,4.80
2018-08-09T05:37:42.405Z,3.23
2018-08-09T05:42:45.882Z,2.97
2018-08-09T05:47:49.204Z,3.47
2018-08-09T05:52:52.549Z,2.60
2018-08-09T05:57:55.879Z,2.97
2018-08-09T06:02:59.967Z,2.50
2018-08-09T06:08:03.293Z,2.10
2018-08-09T06:13:06.618Z,2.63
2018-08-09T06:18:09.935Z,2.13
2018-08-09T06:23:14.034Z,2.30
2018-08-09T06:28:17.366Z,2.13
2018-08-09T06:33:20.709Z,2.77
2018-08-09T06:38:24.815Z,2.20
2018-08-09T06:43:28.143Z,2.20
2018-08-09T06:48:32.411Z,2.17
2018-08-09T06:53:35.777Z,2.67
2018-08-09T06:58:39.866Z,2.77
2018-08-09T07:03:43.195Z,2.70
2018-08-09T07:08:46.542Z,2.93
2018-08-09T07:13:50.810Z,2.40
2018-08-09T07:18:54.167Z,2.50
2018-08-09T07:23:57.617Z,3.00
2018-08-09T07:29:00.946Z,2.90
2018-08-09T07:34:04.275Z,3.03
2018-08-09T07:39:07.606Z,2.73
2018-08-09T07:44:10.934Z,2.23
2018-08-09T07:49:14.274Z,2.63
2018-08-09T07:54:18.404Z,2.90
2018-08-09T07:59:21.718Z,3.03
2018-08-09T08:04:25.817Z,2.77
2018-08-09T08:09:29.150Z,2.80
2018-08-09T08:14:33.236Z,2.60
2018-08-09T08:19:36.564Z,2.60
2018-08-09T08:24:42.938Z,2.40
2018-08-09T08:29:46.270Z,2.20
2018-08-09T08:34:49.607Z,1.93
2018-08-09T08:39:53.702Z,1.67
2018-08-09T08:44:57.026Z,1.87
2018-08-09T08:50:00.355Z,2.67
2018-08-09T08:55:04.497Z,2.20
2018-08-09T09:00:07.797Z,2.23
2018-08-09T09:05:11.969Z,1.43
2018-08-09T09:10:15.211Z,2.00
2018-08-09T09:15:18.540Z,1.80
2018-08-09T09:20:22.630Z,2.20
2018-08-09T09:25:25.959Z,2.57
2018-08-09T09:30:29.304Z,1.70
2018-08-09T09:35:33.394Z,2.40
2018-08-09T09:40:36.722Z,2.27
2018-08-09T09:45:40.061Z,1.50
2018-08-09T09:50:43.389Z,1.70
2018-08-09T09:55:47.483Z,2.00
2018-08-09T10:00:50.811Z,1.70
2018-08-09T10:05:54.898Z,2.20
2018-08-09T10:10:58.224Z,2.30
2018-08-09T10:16:01.580Z,2.03
2018-08-09T10:21:05.674Z,1.90
2018-08-09T10:26:09.015Z,2.27
2018-08-09T10:31:13.098Z,1.80
2018-08-09T10:36:16.422Z,2.13
2018-08-09T10:41:19.743Z,2.03
2018-08-09T10:46:23.091Z,2.53
2018-08-09T10:51:26.445Z,1.97
2018-08-09T10:56:29.771Z,3.07
2018-08-09T11:01:33.098Z,2.50
2018-08-09T11:06:36.431Z,2.37
2018-08-09T11:11:39.757Z,2.43
2018-08-09T11:16:43.846Z,2.43
2018-08-09T11:21:47.167Z,2.27
2018-08-09T11:26:50.503Z,3.08
2018-08-09T11:31:54.590Z,2.92
2018-08-09T11:36:57.918Z,2.90
2018-08-09T11:42:01.259Z,2.78
2018-08-09T11:47:05.353Z,3.25
2018-08-09T11:52:08.690Z,2.90
2018-08-09T11:57:12.805Z,3.20
2018-08-09T12:02:16.158Z,2.80
2018-08-09T12:07:19.487Z,3.42
2018-08-09T12:12:22.813Z,2.37
2018-08-09T12:17:26.152Z,2.15
2018-08-09T12:22:29.494Z,2.30
2018-08-09T12:27:33.587Z,2.40
2018-08-09T12:32:36.940Z,2.20
2018-08-09T12:37:40.278Z,2.80
2018-08-09T12:42:43.607Z,2.20
2018-08-09T12:47:46.933Z,2.72
2018-08-09T12:52:50.258Z,2.50
2018-08-09T12:57:53.592Z,2.70
2018-08-09T13:02:57.684Z,2.00
2018-08-09T13:08:01.021Z,2.65
2018-08-09T13:13:04.347Z,2.30
2018-08-09T13:18:07.684Z,2.70
2018-08-09T13:23:11.007Z,2.90
2018-08-09T13:28:14.338Z,2.83
2018-08-09T13:33:17.666Z,2.95
2018-08-09T13:38:20.994Z,2.58
2018-08-09T13:43:24.377Z,2.50
2018-08-09T13:48:27.681Z,2.87
2018-08-09T13:53:31.006Z,3.05
2018-08-09T13:58:34.379Z,2.70
2018-08-09T14:03:38.457Z,3.05
2018-08-09T14:08:41.788Z,3.10
2018-08-09T14:13:45.111Z,3.15
2018-08-09T14:18:49.197Z,3.00
2018-08-09T14:23:52.531Z,2.95
2018-08-09T14:28:55.861Z,2.90
2018-08-09T14:33:59.189Z,2.97
2018-08-09T14:39:03.282Z,3.08
2018-08-09T14:44:06.608Z,3.20
2018-08-09T14:49:09.934Z,2.97
2018-08-09T14:54:13.262Z,2.65
2018-08-09T14:59:16.593Z,2.95
2018-08-09T15:04:19.924Z,3.70
2018-08-09T15:09:23.259Z,3.53
2018-08-09T15:14:26.596Z,3.20
2018-08-09T15:19:30.696Z,3.35
2018-08-09T15:24:34.045Z,3.28
2018-08-09T15:29:37.369Z,2.90
2018-08-09T15:34:40.698Z,3.00
2018-08-09T15:39:44.023Z,2.45
2018-08-09T15:44:47.349Z,2.15
2018-08-09T15:49:50.682Z,3.10
2018-08-09T15:54:54.039Z,3.20
2018-08-09T15:59:57.367Z,2.60
2018-08-09T16:05:00.710Z,3.50
2018-08-09T16:10:04.100Z,2.78
2018-08-09T16:15:08.166Z,2.50
2018-08-09T16:20:11.506Z,3.03
2018-08-09T16:25:14.839Z,2.97
2018-08-09T16:30:18.748Z,2.95
2018-08-09T16:35:22.445Z,2.70
2018-08-09T16:40:26.057Z,3.08
2018-08-09T16:45:40.477Z,3.22
2018-08-09T16:50:44.248Z,2.60
2018-08-09T16:55:57.517Z,3.15
2018-08-09T17:01:01.274Z,3.17
2018-08-09T17:06:05.093Z,3.20
2018-08-09T17:11:08.764Z,3.10
2018-08-09T17:16:22.486Z,3.42
2018-08-09T17:21:26.189Z,3.80
2018-08-09T17:26:43.495Z,3.37
2018-08-09T17:31:47.170Z,3.08
2018-08-09T17:36:50.851Z,2.90
2018-08-09T17:41:54.792Z,3.30
2018-08-09T17:46:58.366Z,3.37
2018-08-09T17:52:02.837Z,3.00
2018-08-09T17:57:06.495Z,3.20
2018-08-09T18:02:10.957Z,3.10
2018-08-09T18:07:14.601Z,2.90
2018-08-09T18:12:18.300Z,2.93
2018-08-09T18:17:21.981Z,3.13
2018-08-09T18:22:26.366Z,2.63
2018-08-09T18:27:30.026Z,2.57
2018-08-09T18:32:34.631Z,2.43
2018-08-09T18:37:38.956Z,2.73
2018-08-09T18:42:43.016Z,3.27
2018-08-09T18:47:46.737Z,3.13
2018-08-09T18:52:50.486Z,2.93
2018-08-09T18:57:54.292Z,3.17
2018-08-09T19:02:58.135Z,3.27
2018-08-09T19:08:01.944Z,2.83
2018-08-09T19:13:05.657Z,4.50
2018-08-09T19:18:09.453Z,3.37
2018-08-09T19:23:13.098Z,2.60
2018-08-09T19:28:16.925Z,3.17
2018-08-09T19:33:20.651Z,2.50
2018-08-09T19:38:25.138Z,3.20
2018-08-09T19:43:28.940Z,2.50
2018-08-09T19:48:33.389Z,1.97
2018-08-09T19:53:37.394Z,1.83
2018-08-09T19:58:41.091Z,2.00
2018-08-09T20:03:44.719Z,2.03
2018-08-09T20:08:48.366Z,1.80
2018-08-09T20:13:52.018Z,2.00
2018-08-09T20:18:55.472Z,1.50
2018-08-09T20:23:59.116Z,1.77
2018-08-09T20:29:02.756Z,1.70
2018-08-09T20:34:06.193Z,2.50
2018-08-09T20:39:10.458Z,2.70
2018-08-09T20:44:39.217Z,2.30
2018-08-09T20:49:43.324Z,2.50
2018-08-09T20:54:46.654Z,2.60
2018-08-09T20:59:49.977Z,2.60
2018-08-09T21:04:53.382Z,2.70
2018-08-09T21:09:56.711Z,2.63
2018-08-09T21:15:00.060Z,2.37
2018-08-09T21:20:03.401Z,2.60
2018-08-09T21:25:06.719Z,2.50
2018-08-09T21:30:10.050Z,2.60
2018-08-09T21:35:13.370Z,2.43
2018-08-09T21:40:16.698Z,2.40
2018-08-09T21:45:20.796Z,2.20
2018-08-09T21:50:24.126Z,2.50
2018-08-09T21:55:27.451Z,2.67
2018-08-09T22:00:31.552Z,2.50
2018-08-09T22:05:35.650Z,2.70
2018-08-09T22:16:20.079Z,2.87
2018-08-09T22:21:28.999Z,2.40
2018-08-09T22:26:52.141Z,2.10
